createdAt,value
2019-03-10T00:01:43.480Z,8.09
2019-03-10T00:04:15.205Z,8.04
2019-03-10T00:06:47.082Z,8.10
2019-03-10T00:09:19.417Z,8.09
2019-03-10T00:11:51.293Z,8.12
2019-03-10T00:14:23.415Z,8.06
2019-03-10T00:16:55.226Z,8.03
2019-03-10T00:19:27.097Z,8.10
2019-03-10T00:21:58.902Z,8.07
2019-03-10T00:24:30.778Z,8.11
2019-03-10T00:27:02.672Z,8.12
2019-03-10T00:29:34.552Z,8.19
2019-03-10T00:32:06.433Z,8.17
2019-03-10T00:34:39.272Z,8.03
2019-03-10T00:37:11.695Z,8.09
2019-03-10T00:40:32.851Z,8.01
2019-03-10T00:44:01.122Z,8.10
2019-03-10T00:47:30.886Z,8.16
2019-03-10T00:50:46.594Z,8.10
2019-03-10T00:53:18.582Z,8.03
2019-03-10T00:55:50.455Z,8.06
2019-03-10T00:58:22.266Z,8.11
2019-03-10T01:00:54.134Z,8.00
2019-03-10T01:03:25.950Z,7.93
2019-03-10T01:05:57.794Z,8.03
2019-03-10T01:08:29.677Z,7.99
2019-03-10T01:11:01.502Z,7.88
2019-03-10T01:13:33.675Z,7.99
2019-03-10T01:16:05.557Z,7.91
2019-03-10T01:18:38.434Z,8.04
2019-03-10T01:21:11.305Z,8.00
2019-03-10T01:23:43.193Z,7.96
2019-03-10T01:26:15.080Z,7.99
2019-03-10T01:28:46.954Z,7.96
2019-03-10T01:31:42.502Z,8.00
2019-03-10T01:34:57.619Z,7.92
2019-03-10T01:37:29.359Z,8.03
2019-03-10T01:40:01.663Z,8.03
2019-03-10T01:42:33.410Z,8.05
2019-03-10T01:45:06.041Z,8.04
2019-03-10T01:47:37.772Z,8.01
2019-03-10T01:50:12.013Z,7.92
2019-03-10T01:52:43.924Z,7.99
2019-03-10T01:55:15.809Z,8.03
2019-03-10T01:57:48.526Z,8.02
2019-03-10T02:00:20.319Z,8.07
2019-03-10T02:02:52.471Z,8.08
2019-03-10T02:05:25.166Z,8.03
2019-03-10T02:07:56.978Z,7.94
2019-03-10T02:10:28.783Z,8.14
2019-03-10T02:13:00.592Z,8.13
2019-03-10T02:15:32.432Z,8.12
2019-03-10T02:18:04.415Z,7.96
2019-03-10T02:20:36.150Z,7.98
2019-03-10T02:23:07.889Z,7.91
2019-03-10T02:25:39.856Z,8.03
2019-03-10T02:28:11.661Z,8.13
2019-03-10T02:30:43.475Z,8.05
2019-03-10T02:33:16.260Z,8.15
2019-03-10T02:35:47.985Z,7.97
2019-03-10T02:38:19.777Z,7.97
2019-03-10T02:40:51.607Z,8.05
2019-03-10T02:43:23.346Z,8.05
2019-03-10T02:45:55.077Z,7.99
2019-03-10T02:48:26.888Z,7.99
2019-03-10T02:50:58.617Z,8.01
2019-03-10T02:53:30.509Z,7.83
2019-03-10T02:56:02.249Z,7.82
2019-03-10T02:58:34.133Z,7.92
2019-03-10T03:01:06.001Z,7.88
2019-03-10T03:03:37.735Z,7.76
2019-03-10T03:06:09.539Z,7.87
2019-03-10T03:08:41.285Z,7.76
2019-03-10T03:11:13.088Z,7.78
2019-03-10T03:13:44.842Z,7.75
2019-03-10T03:16:16.557Z,7.60
2019-03-10T03:18:48.307Z,7.75
2019-03-10T03:21:20.024Z,7.81
2019-03-10T03:23:51.779Z,7.69
2019-03-10T03:26:23.590Z,7.85
2019-03-10T03:28:55.337Z,7.85
2019-03-10T03:31:27.085Z,7.78
2019-03-10T03:33:59.133Z,7.83
2019-03-10T03:36:37.125Z,7.87
2019-03-10T03:39:42.934Z,7.78
2019-03-10T03:42:14.633Z,7.85
2019-03-10T03:44:47.302Z,7.83
2019-03-10T03:47:19.003Z,7.67
2019-03-10T03:49:50.699Z,7.67
2019-03-10T03:52:22.641Z,7.82
2019-03-10T03:54:54.355Z,7.84
2019-03-10T03:57:26.043Z,7.84
2019-03-10T03:59:57.742Z,7.81
2019-03-10T04:02:38.011Z,7.81
2019-03-10T04:05:10.217Z,7.73
2019-03-10T04:07:41.929Z,7.81
2019-03-10T04:10:13.716Z,7.86
2019-03-10T04:12:45.650Z,7.69
2019-03-10T04:15:17.352Z,7.66
2019-03-10T04:17:49.056Z,7.62
2019-03-10T04:20:20.748Z,7.59
2019-03-10T04:22:52.450Z,7.58
2019-03-10T04:25:24.177Z,7.60
2019-03-10T04:27:55.937Z,7.74
2019-03-10T04:30:27.672Z,7.80
2019-03-10T04:32:59.402Z,7.56
2019-03-10T04:35:31.123Z,7.68
2019-03-10T04:38:02.800Z,7.68
2019-03-10T04:40:34.506Z,7.60
2019-03-10T04:43:06.269Z,7.47
2019-03-10T04:45:37.968Z,7.23
2019-03-10T04:48:11.454Z,7.15
2019-03-10T04:50:43.241Z,7.34
2019-03-10T04:53:14.921Z,7.23
2019-03-10T04:55:51.546Z,7.26
2019-03-10T04:58:23.421Z,7.06
2019-03-10T05:00:56.570Z,7.05
2019-03-10T05:03:28.245Z,7.10
2019-03-10T05:06:00.018Z,6.95
2019-03-10T05:08:31.733Z,6.96
2019-03-10T05:11:03.671Z,6.93
2019-03-10T05:13:35.370Z,6.91
2019-03-10T05:16:07.141Z,6.88
2019-03-10T05:18:39.074Z,6.71
2019-03-10T05:21:11.549Z,6.63
2019-03-10T05:23:44.844Z,6.80
2019-03-10T05:26:17.270Z,6.62
2019-03-10T05:28:49.489Z,6.73
2019-03-10T05:31:21.325Z,6.66
2019-03-10T05:33:53.001Z,6.62
2019-03-10T05:36:24.926Z,6.71
2019-03-10T05:38:56.621Z,6.68
2019-03-10T05:41:28.404Z,6.63
2019-03-10T05:44:00.164Z,6.58
2019-03-10T05:46:32.135Z,6.49
2019-03-10T05:49:03.821Z,6.52
2019-03-10T05:51:35.750Z,6.55
2019-03-10T05:54:07.435Z,6.49
2019-03-10T05:56:40.179Z,6.55
2019-03-10T05:59:12.118Z,6.48
2019-03-10T06:01:43.916Z,6.45
2019-03-10T06:04:15.849Z,6.35
2019-03-10T06:06:48.086Z,6.48
2019-03-10T06:09:19.821Z,6.56
2019-03-10T06:11:52.078Z,6.39
2019-03-10T06:14:23.852Z,6.39
2019-03-10T06:16:56.321Z,6.27
2019-03-10T06:19:28.011Z,6.27
2019-03-10T06:21:59.722Z,6.38
2019-03-10T06:24:31.522Z,6.49
2019-03-10T06:27:03.487Z,6.27
2019-03-10T06:29:35.288Z,6.41
2019-03-10T06:32:08.050Z,6.43
2019-03-10T06:34:39.739Z,6.51
2019-03-10T06:37:11.472Z,6.46
2019-03-10T06:39:43.155Z,6.47
2019-03-10T06:42:14.878Z,6.45
2019-03-10T06:44:46.917Z,6.38
2019-03-10T06:47:18.624Z,6.20
2019-03-10T06:49:50.389Z,6.29
2019-03-10T06:52:22.102Z,6.29
2019-03-10T06:54:53.790Z,6.31
2019-03-10T06:57:25.489Z,6.31
2019-03-10T06:59:57.313Z,6.19
2019-03-10T07:02:29.170Z,6.12
2019-03-10T07:05:00.998Z,6.22
2019-03-10T07:07:32.709Z,6.16
2019-03-10T07:10:04.905Z,6.05
2019-03-10T07:12:36.678Z,6.10
2019-03-10T07:15:09.720Z,6.27
2019-03-10T07:17:41.489Z,6.23
2019-03-10T07:20:15.891Z,6.34
2019-03-10T07:22:47.854Z,6.25
2019-03-10T07:25:19.689Z,6.15
2019-03-10T07:28:16.403Z,6.21
2019-03-10T07:30:53.303Z,6.36
2019-03-10T07:33:31.089Z,6.23
2019-03-10T07:36:10.494Z,6.21
2019-03-10T07:39:01.526Z,6.26
2019-03-10T07:41:56.922Z,6.25
2019-03-10T07:44:37.124Z,6.24
2019-03-10T07:47:21.721Z,6.17
2019-03-10T07:50:04.371Z,6.28
2019-03-10T07:52:52.226Z,6.27
2019-03-10T07:55:31.200Z,6.32
2019-03-10T07:58:21.829Z,6.38
2019-03-10T08:01:00.548Z,6.42
2019-03-10T08:03:57.277Z,6.52
2019-03-10T08:06:56.878Z,6.53
2019-03-10T08:09:46.449Z,6.65
2019-03-10T08:12:37.067Z,6.66
2019-03-10T08:15:22.232Z,6.89
2019-03-10T08:18:28.082Z,6.93
2019-03-10T08:21:10.523Z,6.94
2019-03-10T08:23:57.607Z,6.96
2019-03-10T08:26:39.648Z,7.08
2019-03-10T08:29:33.427Z,7.19
2019-03-10T08:32:24.135Z,7.23
2019-03-10T08:35:14.761Z,7.32
2019-03-10T08:38:07.926Z,7.38
2019-03-10T08:40:57.070Z,7.56
2019-03-10T08:43:46.202Z,7.70
2019-03-10T08:46:36.830Z,7.84
2019-03-10T08:49:27.456Z,7.94
2019-03-10T08:52:10.265Z,8.08
2019-03-10T08:54:51.861Z,8.10
2019-03-10T08:57:38.594Z,8.15
2019-03-10T09:00:42.789Z,8.18
2019-03-10T09:03:27.378Z,8.17
2019-03-10T09:06:14.482Z,8.14
2019-03-10T09:09:17.276Z,8.14
2019-03-10T09:11:55.882Z,8.23
2019-03-10T09:14:39.577Z,8.19
2019-03-10T09:17:17.072Z,8.19
2019-03-10T09:19:59.413Z,8.19
2019-03-10T09:22:50.972Z,8.27
2019-03-10T09:25:41.246Z,8.24
2019-03-10T09:28:20.948Z,8.34
2019-03-10T09:31:10.194Z,8.41
2019-03-10T09:34:03.995Z,8.31
2019-03-10T09:36:49.527Z,8.35
2019-03-10T09:39:40.147Z,8.45
2019-03-10T09:42:30.859Z,8.45
2019-03-10T09:45:17.259Z,8.41
2019-03-10T09:48:20.164Z,8.47
2019-03-10T09:51:02.996Z,8.54
2019-03-10T09:54:02.614Z,8.63
2019-03-10T09:56:48.574Z,8.60
2019-03-10T09:59:54.340Z,8.55
2019-03-10T10:03:00.190Z,8.57
2019-03-10T10:05:52.431Z,8.60
2019-03-10T10:08:45.360Z,8.71
2019-03-10T10:11:36.855Z,8.74
2019-03-10T10:14:27.519Z,8.66
2019-03-10T10:17:18.141Z,8.71
2019-03-10T10:20:08.858Z,8.79
2019-03-10T10:22:47.357Z,8.85
2019-03-10T10:25:24.368Z,8.92
2019-03-10T10:28:13.780Z,8.93
2019-03-10T10:31:03.264Z,8.96
2019-03-10T10:33:47.541Z,8.98
2019-03-10T10:36:53.044Z,9.02
2019-03-10T10:39:40.904Z,9.02
2019-03-10T10:42:26.625Z,9.10
2019-03-10T10:45:15.685Z,9.05
2019-03-10T10:48:15.397Z,9.07
2019-03-10T10:50:57.030Z,9.05
2019-03-10T10:53:38.883Z,9.07
2019-03-10T10:56:22.745Z,9.10
2019-03-10T10:59:09.002Z,9.12
2019-03-10T11:01:49.711Z,9.15
2019-03-10T11:04:33.910Z,9.24
2019-03-10T11:07:18.497Z,9.28
2019-03-10T11:10:09.478Z,9.24
2019-03-10T11:12:53.018Z,9.33
2019-03-10T11:15:49.504Z,9.42
2019-03-10T11:18:35.221Z,9.55
2019-03-10T11:21:13.645Z,9.64
2019-03-10T11:23:49.682Z,9.70
2019-03-10T11:26:55.786Z,9.73
2019-03-10T11:29:45.765Z,9.78
2019-03-10T11:32:30.553Z,9.85
2019-03-10T11:35:11.929Z,9.82
2019-03-10T11:37:51.228Z,9.86
2019-03-10T11:40:40.615Z,9.96
2019-03-10T11:43:23.377Z,10.09
2019-03-10T11:46:00.504Z,10.23
2019-03-10T11:48:51.217Z,10.53
2019-03-10T11:51:34.112Z,10.65
2019-03-10T11:54:11.543Z,10.77
2019-03-10T11:56:53.312Z,10.74
2019-03-10T11:59:32.928Z,11.06
2019-03-10T12:02:22.786Z,11.20
2019-03-10T12:05:01.939Z,11.25
2019-03-10T12:07:40.032Z,11.17
2019-03-10T12:10:11.907Z,11.02
2019-03-10T12:12:43.698Z,10.99
2019-03-10T12:15:16.044Z,10.74
2019-03-10T12:17:47.883Z,10.46
2019-03-10T12:20:19.929Z,10.33
2019-03-10T12:22:51.638Z,10.33
2019-03-10T12:25:23.383Z,10.55
2019-03-10T12:27:55.115Z,10.73
2019-03-10T12:30:27.290Z,10.91
2019-03-10T12:32:59.019Z,10.94
2019-03-10T12:35:34.597Z,10.81
2019-03-10T12:38:04.183Z,10.65
2019-03-10T12:40:36.645Z,10.09
2019-03-10T12:43:08.602Z,9.93
2019-03-10T12:45:40.353Z,9.86
2019-03-10T12:48:12.145Z,9.89
2019-03-10T12:50:43.947Z,10.32
2019-03-10T12:53:15.656Z,10.36
2019-03-10T12:55:47.903Z,10.56
2019-03-10T12:58:19.851Z,10.76
2019-03-10T13:00:51.596Z,10.96
2019-03-10T13:03:23.306Z,11.01
2019-03-10T13:05:55.075Z,11.08
2019-03-10T13:08:27.016Z,11.15
2019-03-10T13:10:59.038Z,11.12
2019-03-10T13:13:30.826Z,10.99
2019-03-10T13:16:03.542Z,10.89
2019-03-10T13:18:35.405Z,10.57
2019-03-10T13:21:07.208Z,10.19
2019-03-10T13:23:38.922Z,10.12
2019-03-10T13:26:12.098Z,10.19
2019-03-10T13:28:44.226Z,10.25
2019-03-10T13:31:15.977Z,10.32
2019-03-10T13:33:47.750Z,10.38
2019-03-10T13:36:19.554Z,10.37
2019-03-10T13:38:51.354Z,10.41
2019-03-10T13:41:23.338Z,10.49
2019-03-10T13:43:55.090Z,10.65
2019-03-10T13:46:26.823Z,10.73
2019-03-10T13:48:58.748Z,10.56
2019-03-10T13:51:30.567Z,9.66
2019-03-10T13:54:02.283Z,9.10
2019-03-10T13:56:34.018Z,8.83
2019-03-10T13:59:05.899Z,8.69
2019-03-10T14:01:37.970Z,9.04
2019-03-10T14:04:10.046Z,9.32
2019-03-10T14:06:41.870Z,9.65
2019-03-10T14:09:13.817Z,9.95
2019-03-10T14:11:45.625Z,10.32
2019-03-10T14:14:22.963Z,10.63
2019-03-10T14:17:02.018Z,10.86
2019-03-10T14:20:05.218Z,11.17
2019-03-10T14:22:42.934Z,11.54
2019-03-10T14:25:33.674Z,11.80
2019-03-10T14:28:15.192Z,11.93
2019-03-10T14:31:21.206Z,11.94
2019-03-10T14:34:03.942Z,11.91
2019-03-10T14:36:35.799Z,11.40
2019-03-10T14:39:09.014Z,11.28
2019-03-10T14:41:40.898Z,11.20
2019-03-10T14:44:12.711Z,11.07
2019-03-10T14:46:48.206Z,11.01
2019-03-10T14:49:23.587Z,10.98
2019-03-10T14:51:53.704Z,10.94
2019-03-10T14:54:25.686Z,10.99
2019-03-10T14:56:57.466Z,11.03
2019-03-10T14:59:29.216Z,11.02
2019-03-10T15:02:00.932Z,11.26
2019-03-10T15:04:32.675Z,11.47
2019-03-10T15:07:04.714Z,11.20
2019-03-10T15:09:36.462Z,11.10
2019-03-10T15:12:08.499Z,11.05
2019-03-10T15:14:40.521Z,11.06
2019-03-10T15:17:12.595Z,10.93
2019-03-10T15:19:44.321Z,10.94
2019-03-10T15:22:16.074Z,11.09
2019-03-10T15:24:47.797Z,11.29
2019-03-10T15:27:23.248Z,11.58
2019-03-10T15:29:53.118Z,11.82
2019-03-10T15:32:24.850Z,12.11
2019-03-10T15:34:56.829Z,11.94
2019-03-10T15:37:28.550Z,11.97
2019-03-10T15:40:00.376Z,11.89
2019-03-10T15:42:33.697Z,11.65
2019-03-10T15:45:05.874Z,11.64
2019-03-10T15:47:37.598Z,11.65
2019-03-10T15:50:14.577Z,11.86
2019-03-10T15:52:46.310Z,11.55
2019-03-10T15:55:18.382Z,11.63
2019-03-10T15:57:50.927Z,11.44
2019-03-10T16:00:22.971Z,11.17
2019-03-10T16:02:54.924Z,10.94
2019-03-10T16:05:26.892Z,10.74
2019-03-10T16:07:58.706Z,10.72
2019-03-10T16:10:30.440Z,10.53
2019-03-10T16:13:02.227Z,10.49
2019-03-10T16:15:34.132Z,10.32
2019-03-10T16:18:06.035Z,10.40
2019-03-10T16:20:37.767Z,10.25
2019-03-10T16:23:09.537Z,10.22
2019-03-10T16:25:41.341Z,10.18
2019-03-10T16:28:13.064Z,10.12
2019-03-10T16:30:44.774Z,10.02
2019-03-10T16:33:16.778Z,9.95
2019-03-10T16:35:48.489Z,9.86
2019-03-10T16:38:20.444Z,9.93
2019-03-10T16:40:52.227Z,9.86
2019-03-10T16:43:23.923Z,9.69
2019-03-10T16:45:55.624Z,9.72
2019-03-10T16:48:27.330Z,9.68
2019-03-10T16:50:59.109Z,9.65
2019-03-10T16:53:30.895Z,9.60
2019-03-10T16:56:03.416Z,9.53
2019-03-10T16:58:35.315Z,9.51
2019-03-10T17:01:07.092Z,9.45
2019-03-10T17:03:39.792Z,9.38
2019-03-10T17:06:11.495Z,9.42
2019-03-10T17:08:44.204Z,9.35
2019-03-10T17:11:15.908Z,9.28
2019-03-10T17:13:47.805Z,9.19
2019-03-10T17:16:19.581Z,8.98
2019-03-10T17:18:51.410Z,8.98
2019-03-10T17:21:23.232Z,8.87
2019-03-10T17:23:55.038Z,8.83
2019-03-10T17:26:26.742Z,8.82
2019-03-10T17:28:58.774Z,8.69
2019-03-10T17:31:30.464Z,8.74
2019-03-10T17:34:03.000Z,8.64
2019-03-10T17:36:35.108Z,8.63
2019-03-10T17:39:08.119Z,8.54
2019-03-10T17:41:39.905Z,8.56
2019-03-10T17:44:11.779Z,8.54
2019-03-10T17:46:43.509Z,8.53
2019-03-10T17:49:15.486Z,8.46
2019-03-10T17:51:47.316Z,8.38
2019-03-10T17:54:19.269Z,8.34
2019-03-10T17:56:50.997Z,8.32
2019-03-10T17:59:22.818Z,8.35
2019-03-10T18:01:54.606Z,8.34
2019-03-10T18:04:26.400Z,8.32
2019-03-10T18:06:58.373Z,8.29
2019-03-10T18:09:31.482Z,8.34
2019-03-10T18:12:03.507Z,8.31
2019-03-10T18:14:35.351Z,8.30
2019-03-10T18:17:07.119Z,8.24
2019-03-10T18:19:38.843Z,8.15
2019-03-10T18:22:11.871Z,8.24
2019-03-10T18:24:43.637Z,8.23
2019-03-10T18:27:15.360Z,8.20
2019-03-10T18:29:47.360Z,8.17
2019-03-10T18:32:19.075Z,8.09
2019-03-10T18:34:51.310Z,8.19
2019-03-10T18:37:23.020Z,8.15
2019-03-10T18:39:54.745Z,8.09
2019-03-10T18:42:26.488Z,8.16
2019-03-10T18:44:58.280Z,8.14
2019-03-10T18:47:30.678Z,8.03
2019-03-10T18:50:02.509Z,8.06
2019-03-10T18:52:34.510Z,7.97
2019-03-10T18:55:08.668Z,7.81
2019-03-10T18:57:40.446Z,7.00
2019-03-10T19:00:19.226Z,6.45
2019-03-10T19:02:51.561Z,6.32
2019-03-10T19:05:23.468Z,6.05
2019-03-10T19:07:55.213Z,5.71
2019-03-10T19:10:27.091Z,5.46
2019-03-10T19:12:58.947Z,4.99
2019-03-10T19:15:30.747Z,4.87
2019-03-10T19:18:02.469Z,4.73
2019-03-10T19:20:34.197Z,5.00
2019-03-10T19:23:05.964Z,5.01
2019-03-10T19:25:37.688Z,5.19
2019-03-10T19:28:09.657Z,5.30
2019-03-10T19:30:41.378Z,5.42
2019-03-10T19:33:13.480Z,5.42
2019-03-10T19:35:45.422Z,5.44
2019-03-10T19:38:17.347Z,5.46
2019-03-10T19:40:49.252Z,5.34
2019-03-10T19:43:21.082Z,5.46
2019-03-10T19:45:53.926Z,5.41
2019-03-10T19:48:25.889Z,5.40
2019-03-10T19:50:58.601Z,5.41
2019-03-10T19:53:30.505Z,5.45
2019-03-10T19:56:04.026Z,5.41
2019-03-10T19:58:36.166Z,5.37
2019-03-10T20:01:07.999Z,5.35
2019-03-10T20:03:39.731Z,5.31
2019-03-10T20:06:12.152Z,5.36
2019-03-10T20:08:44.098Z,5.32
2019-03-10T20:11:16.214Z,5.25
2019-03-10T20:13:47.938Z,5.20
2019-03-10T20:16:19.748Z,5.22
2019-03-10T20:18:52.501Z,5.31
2019-03-10T20:21:24.373Z,5.23
2019-03-10T20:23:56.454Z,5.30
2019-03-10T20:26:28.437Z,5.26
2019-03-10T20:29:00.316Z,5.14
2019-03-10T20:31:32.455Z,5.21
2019-03-10T20:34:04.326Z,5.21
2019-03-10T20:36:36.234Z,5.10
2019-03-10T20:39:09.250Z,5.11
2019-03-10T20:41:41.285Z,5.14
2019-03-10T20:44:13.557Z,5.02
2019-03-10T20:46:45.433Z,5.03
2019-03-10T20:49:17.202Z,5.04
2019-03-10T20:51:49.209Z,5.09
2019-03-10T20:54:21.026Z,5.06
2019-03-10T20:56:52.938Z,5.04
2019-03-10T20:59:24.685Z,5.05
2019-03-10T21:01:56.479Z,5.00
2019-03-10T21:04:28.254Z,5.12
2019-03-10T21:07:00.312Z,5.11
2019-03-10T21:09:32.087Z,5.16
2019-03-10T21:12:04.077Z,4.52
2019-03-10T21:14:35.838Z,3.96
2019-03-10T21:17:07.658Z,3.63
2019-03-10T21:19:39.506Z,3.49
2019-03-10T21:22:11.233Z,3.37
2019-03-10T21:24:43.045Z,2.88
2019-03-10T21:27:15.165Z,2.85
2019-03-10T21:29:47.191Z,2.97
2019-03-10T21:32:19.050Z,3.03
2019-03-10T21:34:51.241Z,2.63
2019-03-10T21:37:23.192Z,3.09
2019-03-10T21:39:55.134Z,3.09
2019-03-10T21:42:26.965Z,3.09
2019-03-10T21:44:59.017Z,2.99
2019-03-10T21:47:30.818Z,3.01
2019-03-10T21:50:02.579Z,2.98
2019-03-10T21:52:34.741Z,3.01
2019-03-10T21:55:07.039Z,2.97
2019-03-10T21:57:39.058Z,3.00
2019-03-10T22:00:13.091Z,3.01
2019-03-10T22:02:45.173Z,2.86
2019-03-10T22:05:17.497Z,3.08
2019-03-10T22:07:49.512Z,2.92
2019-03-10T22:10:28.747Z,2.86
2019-03-10T22:12:54.924Z,2.82
2019-03-10T22:15:26.735Z,2.91
2019-03-10T22:17:58.758Z,2.95
2019-03-10T22:20:30.591Z,2.92
2019-03-10T22:23:02.386Z,2.99
2019-03-10T22:25:34.340Z,2.92
2019-03-10T22:28:06.238Z,2.95
2019-03-10T22:30:38.004Z,2.92
2019-03-10T22:33:09.911Z,2.95
2019-03-10T22:35:41.828Z,2.98
2019-03-10T22:38:15.422Z,3.07
2019-03-10T22:40:47.496Z,3.11
2019-03-10T22:43:19.268Z,3.14
2019-03-10T22:45:51.054Z,3.01
2019-03-10T22:48:22.912Z,2.81
2019-03-10T22:50:54.678Z,2.94
2019-03-10T22:53:26.775Z,2.92
2019-03-10T22:55:58.557Z,3.01
2019-03-10T22:58:30.332Z,2.93
2019-03-10T23:01:02.313Z,3.06
2019-03-10T23:03:35.565Z,3.20
2019-03-10T23:06:07.554Z,3.30
2019-03-10T23:08:39.682Z,3.21
2019-03-10T23:11:11.745Z,3.27
2019-03-10T23:13:43.669Z,3.26
2019-03-10T23:16:15.583Z,3.16
2019-03-10T23:18:47.240Z,3.23
2019-03-10T23:21:19.050Z,3.18
2019-03-10T23:23:50.843Z,3.25
2019-03-10T23:26:22.533Z,3.21
2019-03-10T23:28:54.736Z,3.38
2019-03-10T23:31:26.540Z,3.36
2019-03-10T23:33:58.399Z,3.43
2019-03-10T23:36:30.161Z,3.57
2019-03-10T23:39:02.040Z,3.54
2019-03-10T23:41:35.102Z,3.52
2019-03-10T23:44:07.027Z,3.52
2019-03-10T23:46:39.020Z,3.42
2019-03-10T23:49:11.980Z,3.53
2019-03-10T23:51:43.744Z,3.51
2019-03-10T23:54:15.515Z,3.48
2019-03-10T23:56:47.386Z,3.46
2019-03-10T23:59:20.317Z,3.51
